Terminal Aerodrome Forecast
Issued by NWS Louisville, KY

Home | Current Version | Previous Version | Text Only | Print | Product List | Glossary On
Versions: 1 2 3 4 5 6 7 8 9 10 11 12 13 14 15 16 17 18 19 20 21 22 23
000
FTUS43 KLMK 172000 AAA
TAFSDF
TAF AMD
KSDF 172028Z 1720/1824 15008KT 5SM SHRA BR SCT012 OVC027
     FM172100 15007KT P6SM VCSH SCT025 BKN035
     FM180000 18006KT 6SM SHRA BR OVC035
     FM180400 19004KT 5SM BR VCSH OVC025
     FM180600 21004KT 3SM BR OVC010
     FM181700 27006KT P6SM SCT025 BKN035=

USA.gov is the U.S. government's official web portal to all federal, state and local government web resources and services.